Time;durP1;ratioP1;P1;durP2;ratioP2;P2;SDS_P1;SDS_P2;PMS_P1;PMS_P2;Temp;Humidity;BMP_temperature;BMP_pressure;BME280_temperature;BME280_humidity;BME280_pressure;Samples;Min_cycle;Max_cycle;Signal;HPM_P1;HPM_P2
2022/12/02 00:00:19;;;;;;;92.37;44.90;;;;;;;4.00;100.00;102452.38;4989663;28;20030;-63
2022/12/02 00:02:45;;;;;;;81.43;43.77;;;;;;;3.97;100.00;102449.56;4990813;28;20058;-63
2022/12/02 00:05:13;;;;;;;81.63;45.53;;;;;;;3.97;100.00;102447.88;4990207;28;20557;-63
2022/12/02 00:07:39;;;;;;;86.57;44.27;;;;;;;3.92;100.00;102453.41;4990140;28;20036;-63
2022/12/02 00:10:24;;;;;;;80.27;43.67;;;;;;;3.83;100.00;102449.28;4989000;28;20025;-63
2022/12/02 00:12:50;;;;;;;74.77;40.53;;;;;;;3.81;100.00;102445.66;4989586;28;20129;-63
2022/12/02 00:15:46;;;;;;;76.27;42.00;;;;;;;3.81;100.00;102448.22;4990245;28;20589;-63
2022/12/02 00:18:14;;;;;;;73.90;42.43;;;;;;;3.82;100.00;102444.91;4968385;28;20113;-63
2022/12/02 00:20:40;;;;;;;65.70;40.73;;;;;;;3.80;100.00;102443.88;4990304;28;20025;-63
2022/12/02 00:23:06;;;;;;;61.60;38.43;;;;;;;3.79;100.00;102438.63;4989372;28;20053;-63
2022/12/02 00:25:32;;;;;;;66.53;38.70;;;;;;;3.72;100.00;102437.22;4989899;28;20526;-63
2022/12/02 00:27:58;;;;;;;64.40;39.53;;;;;;;3.68;100.00;102438.63;4988783;28;20037;-63
2022/12/02 00:30:24;;;;;;;63.77;37.50;;;;;;;3.67;100.00;102436.78;4989866;28;20275;-63
2022/12/02 00:32:49;;;;;;;70.00;37.90;;;;;;;3.67;100.00;102428.22;4989729;28;20026;-63
2022/12/02 00:35:15;;;;;;;63.73;37.60;;;;;;;3.68;100.00;102432.56;4989866;28;20109;-63
2022/12/02 00:37:40;;;;;;;67.77;37.80;;;;;;;3.64;100.00;102418.59;4989425;28;20076;-63
2022/12/02 00:40:06;;;;;;;59.27;36.10;;;;;;;3.63;100.00;102424.50;4988931;28;20041;-62
2022/12/02 00:42:31;;;;;;;63.07;37.73;;;;;;;3.60;100.00;102419.09;4989455;28;20026;-63
2022/12/02 00:47:41;;;;;;;59.80;36.00;;;;;;;3.58;100.00;102415.53;4989009;28;20033;-63
2022/12/02 00:50:06;;;;;;;59.63;36.53;;;;;;;3.57;100.00;102419.75;4988614;28;20030;-64
2022/12/02 00:52:32;;;;;;;63.13;36.47;;;;;;;3.54;100.00;102410.88;4988865;28;20027;-64
2022/12/02 00:54:57;;;;;;;62.80;35.73;;;;;;;3.52;100.00;102414.97;4989645;28;20042;-64
2022/12/02 00:57:22;;;;;;;64.37;36.67;;;;;;;3.48;100.00;102418.94;4989192;28;20062;-63
2022/12/02 00:59:48;;;;;;;62.77;36.20;;;;;;;3.48;100.00;102413.81;4989286;28;20475;-63
2022/12/02 01:02:13;;;;;;;60.20;35.80;;;;;;;3.50;100.00;102412.28;4989361;28;20029;-63
2022/12/02 01:04:38;;;;;;;64.73;38.07;;;;;;;3.50;100.00;102417.41;4989783;28;20510;-63
2022/12/02 01:07:04;;;;;;;61.77;36.10;;;;;;;3.51;100.00;102414.06;4988979;28;20053;-64
2022/12/02 01:09:29;;;;;;;60.80;36.60;;;;;;;3.51;100.00;102408.06;4989387;28;20030;-63
2022/12/02 01:11:54;;;;;;;59.30;35.63;;;;;;;3.50;100.00;102406.25;4988090;28;20034;-64
2022/12/02 01:14:19;;;;;;;61.63;37.27;;;;;;;3.48;100.00;102407.03;4988779;28;20498;-63
2022/12/02 01:16:45;;;;;;;63.17;37.43;;;;;;;3.49;100.00;102405.34;4988805;28;20037;-63
2022/12/02 01:19:10;;;;;;;63.07;36.87;;;;;;;3.46;100.00;102405.09;4988707;28;20360;-63
2022/12/02 01:21:35;;;;;;;65.73;37.47;;;;;;;3.44;100.00;102411.75;4988120;28;20527;-63
2022/12/02 01:24:01;;;;;;;63.17;36.43;;;;;;;3.42;100.00;102403.03;4989168;28;20042;-63
2022/12/02 01:26:26;;;;;;;63.93;36.03;;;;;;;3.43;100.00;102404.81;4988599;28;20110;-63
2022/12/02 01:28:51;;;;;;;63.50;37.63;;;;;;;3.43;100.00;102404.81;4988418;28;20030;-64
2022/12/02 01:31:17;;;;;;;63.10;37.83;;;;;;;3.42;100.00;102400.47;4988228;28;20030;-63
2022/12/02 01:33:42;;;;;;;61.37;36.73;;;;;;;3.43;100.00;102404.81;4988355;28;20452;-63
2022/12/02 01:36:08;;;;;;;61.80;38.00;;;;;;;3.43;100.00;102402.25;4988187;28;20597;-63
2022/12/02 01:38:33;;;;;;;64.43;37.80;;;;;;;3.43;100.00;102403.16;4988919;28;20153;-63
2022/12/02 01:40:58;;;;;;;63.07;37.30;;;;;;;3.44;100.00;102414.31;4987964;28;20489;-64
2022/12/02 01:43:24;;;;;;;62.10;35.90;;;;;;;3.41;100.00;102408.91;4988831;28;20141;-63
2022/12/02 01:45:50;;;;;;;59.13;36.47;;;;;;;3.40;100.00;102404.56;4987574;28;20049;-63
2022/12/02 01:48:15;;;;;;;59.07;35.03;;;;;;;3.40;100.00;102404.56;4988290;28;20038;-63
2022/12/02 01:50:41;;;;;;;60.80;34.57;;;;;;;3.41;100.00;102401.22;4987899;28;20097;-63
2022/12/02 01:53:06;;;;;;;61.47;37.50;;;;;;;3.41;100.00;102406.34;4988421;28;20043;-63
2022/12/02 01:55:32;;;;;;;59.77;35.07;;;;;;;3.41;100.00;102408.91;4988341;28;20260;-63
2022/12/02 01:57:57;;;;;;;61.00;34.50;;;;;;;3.40;100.00;102407.13;4988259;28;20165;-63
2022/12/02 02:00:23;;;;;;;60.00;35.13;;;;;;;3.38;100.00;102406.09;4988131;28;20080;-63
2022/12/02 02:02:48;;;;;;;63.23;36.37;;;;;;;3.35;100.00;102399.94;4987786;28;20062;-63
2022/12/02 02:05:23;;;;;;;64.60;36.20;;;;;;;3.34;100.00;102395.59;4987687;28;20034;-63
2022/12/02 02:07:52;;;;;;;67.63;37.87;;;;;;;3.33;100.00;102398.91;4988129;28;20080;-63
2022/12/02 02:10:18;;;;;;;59.97;36.47;;;;;;;3.33;100.00;102409.16;4988462;28;20054;-63
2022/12/02 02:12:47;;;;;;;65.17;36.27;;;;;;;3.32;100.00;102394.56;4987974;28;20376;-63
2022/12/02 02:15:14;;;;;;;66.27;37.60;;;;;;;3.32;100.00;102397.13;4988804;28;20385;-63
2022/12/02 02:17:40;;;;;;;65.37;38.13;;;;;;;3.30;100.00;102397.72;4987857;28;20379;-63
2022/12/02 02:20:09;;;;;;;65.13;38.13;;;;;;;3.29;100.00;102406.19;4987304;28;20033;-63
2022/12/02 02:22:57;;;;;;;63.00;36.90;;;;;;;3.25;100.00;102397.34;4988133;28;20399;-64
2022/12/02 02:25:23;;;;;;;68.37;38.33;;;;;;;3.24;100.00;102410.91;4977564;28;20517;-63
2022/12/02 02:27:54;;;;;;;65.93;36.47;;;;;;;3.19;100.00;102405.38;4987656;28;20034;-64
2022/12/02 02:30:20;;;;;;;66.18;37.35;;;;;;;3.16;100.00;102404.22;4981401;28;20376;-64
2022/12/02 02:32:47;;;;;;;64.17;35.17;;;;;;;3.12;100.00;102397.94;4987736;28;20022;-63
2022/12/02 02:35:13;;;;;;;62.93;35.37;;;;;;;3.10;100.00;102397.81;4986717;28;20269;-63
2022/12/02 02:37:39;;;;;;;63.17;35.77;;;;;;;3.06;100.00;102393.16;4987446;28;20088;-63
2022/12/02 02:40:05;;;;;;;58.53;34.00;;;;;;;3.03;100.00;102390.34;4987789;28;20026;-63
2022/12/02 02:42:31;;;;;;;57.53;33.03;;;;;;;2.98;100.00;102394.16;4987539;28;20500;-63
2022/12/02 02:44:56;;;;;;;55.83;33.30;;;;;;;2.96;100.00;102385.44;4987590;28;20058;-63
2022/12/02 02:47:21;;;;;;;58.33;33.33;;;;;;;2.96;100.00;102388.00;4986972;28;20030;-63
2022/12/02 02:49:47;;;;;;;57.57;34.50;;;;;;;2.91;100.00;102381.56;4987617;28;20037;-64
2022/12/02 02:52:12;;;;;;;54.67;33.47;;;;;;;2.88;100.00;102380.53;4987570;28;20045;-63
2022/12/02 02:54:38;;;;;;;57.53;33.23;;;;;;;2.88;100.00;102383.09;4987677;28;20019;-63
2022/12/02 02:57:03;;;;;;;62.80;34.13;;;;;;;2.86;100.00;102379.50;4987796;28;20030;-63
2022/12/02 02:59:28;;;;;;;53.80;32.73;;;;;;;2.86;100.00;102382.06;4987816;28;20031;-63
2022/12/02 03:01:54;;;;;;;55.80;33.60;;;;;;;2.85;100.00;102367.47;4986644;28;20018;-63
2022/12/02 03:04:22;;;;;;;47.27;31.23;;;;;;;2.86;100.00;102378.63;4987928;28;20514;-63
2022/12/02 03:06:49;;;;;;;52.73;30.97;;;;;;;2.85;100.00;102377.72;4987591;28;20026;-63
2022/12/02 03:09:19;;;;;;;55.27;32.50;;;;;;;2.82;100.00;102372.34;4987667;28;20065;-64
2022/12/02 03:11:48;;;;;;;57.00;33.57;;;;;;;2.81;100.00;102362.84;4986976;28;20038;-63
2022/12/02 03:14:15;;;;;;;57.97;31.63;;;;;;;2.81;100.00;102360.28;4990122;28;20045;-63
2022/12/02 03:16:41;;;;;;;52.83;32.70;;;;;;;2.79;100.00;102359.22;4991598;28;20517;-63
2022/12/02 03:19:06;;;;;;;55.00;33.57;;;;;;;2.79;100.00;102351.56;4991567;28;20034;-64
2022/12/02 03:21:33;;;;;;;54.73;33.47;;;;;;;2.77;100.00;102353.06;4990920;28;20023;-63
2022/12/02 03:24:02;;;;;;;56.87;33.87;;;;;;;2.75;100.00;102357.19;4991125;28;20073;-63
2022/12/02 03:26:27;;;;;;;53.97;31.97;;;;;;;2.75;100.00;102359.75;4991681;28;20038;-63
2022/12/02 03:28:55;;;;;;;54.47;33.47;;;;;;;2.72;100.00;102365.47;4990777;28;20030;-63
2022/12/02 03:31:21;;;;;;;53.77;31.40;;;;;;;2.70;100.00;102371.25;4990923;28;20445;-63
2022/12/02 03:33:48;;;;;;;52.57;30.60;;;;;;;2.69;100.00;102364.31;4990554;28;20033;-63
2022/12/02 03:36:13;;;;;;;54.17;30.83;;;;;;;2.66;100.00;102364.94;4991195;28;20441;-63
2022/12/02 03:38:39;;;;;;;50.70;29.30;;;;;;;2.62;100.00;102368.91;4990565;28;20018;-63
2022/12/02 03:41:05;;;;;;;53.77;32.97;;;;;;;2.60;100.00;102362.75;4991313;28;20045;-63
2022/12/02 03:43:31;;;;;;;55.03;31.03;;;;;;;2.58;100.00;102351.47;4990187;28;20026;-63
2022/12/02 03:45:57;;;;;;;49.90;29.97;;;;;;;2.58;100.00;102346.34;4990406;28;20050;-63
2022/12/02 03:48:24;;;;;;;56.17;30.37;;;;;;;2.54;100.00;102346.81;4990334;28;20093;-63
2022/12/02 03:50:51;;;;;;;52.17;31.13;;;;;;;2.52;100.00;102349.25;4990942;28;20022;-63
2022/12/02 03:53:17;;;;;;;55.97;32.00;;;;;;;2.48;100.00;102349.72;4990836;28;20049;-63
2022/12/02 03:55:43;;;;;;;49.90;29.60;;;;;;;2.46;100.00;102351.28;4991344;28;20414;-63
2022/12/02 03:58:08;;;;;;;53.80;31.80;;;;;;;2.47;100.00;102341.91;4990166;28;20030;-64
2022/12/02 04:00:35;;;;;;;51.33;30.37;;;;;;;2.47;100.00;102331.69;4990730;28;20553;-63
2022/12/02 04:03:01;;;;;;;53.33;30.87;;;;;;;2.46;100.00;102330.81;4990065;28;20073;-63
2022/12/02 04:05:26;;;;;;;52.43;30.93;;;;;;;2.47;100.00;102332.59;4990324;28;20425;-63
2022/12/02 04:07:52;;;;;;;49.67;29.33;;;;;;;2.48;100.00;102330.94;4989935;28;20716;-63
2022/12/02 04:10:17;;;;;;;54.77;32.00;;;;;;;2.47;100.00;102327.47;4980908;28;20038;-63
2022/12/02 04:12:42;;;;;;;50.83;29.70;;;;;;;2.47;100.00;102330.03;4986866;28;20496;-63
2022/12/02 04:15:09;;;;;;;54.30;31.53;;;;;;;2.46;100.00;102327.34;4990045;28;20030;-63
2022/12/02 04:17:34;;;;;;;55.17;31.43;;;;;;;2.46;100.00;102327.34;4990202;28;20313;-63
2022/12/02 04:19:59;;;;;;;52.83;30.90;;;;;;;2.46;100.00;102330.81;4990747;28;20034;-63
2022/12/02 04:22:25;;;;;;;56.50;29.80;;;;;;;2.44;100.00;102326.28;4990074;28;20086;-63
2022/12/02 04:24:50;;;;;;;48.10;28.67;;;;;;;2.39;100.00;102319.09;4989628;28;20037;-63
2022/12/02 04:27:15;;;;;;;50.83;29.83;;;;;;;2.38;100.00;102329.19;4989733;28;20037;-63
2022/12/02 04:29:41;;;;;;;54.20;28.27;;;;;;;2.34;100.00;102322.03;4989463;28;20491;-63
2022/12/02 04:32:06;;;;;;;50.00;29.23;;;;;;;2.34;100.00;102330.56;4989271;28;20027;-63
2022/12/02 04:34:31;;;;;;;45.03;26.40;;;;;;;2.34;100.00;102330.56;4989589;28;20034;-63
2022/12/02 04:36:56;;;;;;;43.93;25.37;;;;;;;2.33;100.00;102330.44;4990099;28;20022;-63
2022/12/02 04:39:22;;;;;;;45.87;25.50;;;;;;;2.33;100.00;102327.88;4989860;28;20026;-63
2022/12/02 04:41:47;;;;;;;42.67;25.73;;;;;;;2.32;100.00;102332.09;4989266;28;20023;-63
2022/12/02 04:44:12;;;;;;;44.70;24.30;;;;;;;2.31;100.00;102330.31;4988840;28;20551;-63
2022/12/02 04:46:38;;;;;;;39.40;23.27;;;;;;;2.31;100.00;102322.63;4989275;28;20046;-63
2022/12/02 04:49:03;;;;;;;37.63;22.37;;;;;;;2.26;100.00;102319.69;4989638;28;20121;-63
2022/12/02 04:51:29;;;;;;;40.03;23.30;;;;;;;2.25;100.00;102315.31;4989353;28;20437;-63
2022/12/02 04:53:54;;;;;;;34.87;22.23;;;;;;;2.27;100.00;102316.34;4989105;28;20068;-63
2022/12/02 04:56:19;;;;;;;45.23;24.10;;;;;;;2.26;100.00;102316.22;4989139;28;20030;-63
2022/12/02 04:58:45;;;;;;;38.80;22.80;;;;;;;2.27;100.00;102320.56;4989444;28;20109;-64
2022/12/02 05:01:10;;;;;;;41.27;23.27;;;;;;;2.25;100.00;102309.28;4988740;28;20274;-63
2022/12/02 05:03:35;;;;;;;37.93;22.27;;;;;;;2.25;100.00;102301.59;4989778;28;20034;-63
2022/12/02 05:06:01;;;;;;;40.17;23.03;;;;;;;2.23;100.00;102298.91;4989184;28;20019;-63
2022/12/02 05:08:26;;;;;;;40.23;23.43;;;;;;;2.22;100.00;102303.91;4989376;28;20175;-63
2022/12/02 05:10:51;;;;;;;41.33;24.87;;;;;;;2.20;100.00;102301.22;4988802;28;20026;-63
2022/12/02 05:13:16;;;;;;;41.57;23.47;;;;;;;2.20;100.00;102301.22;4989402;28;20513;-63
2022/12/02 05:15:42;;;;;;;42.20;23.87;;;;;;;2.20;100.00;102295.19;4988893;28;20045;-63
2022/12/02 05:18:07;;;;;;;42.43;24.60;;;;;;;2.20;100.00;102284.94;4988606;28;20057;-63
2022/12/02 05:20:32;;;;;;;41.10;23.47;;;;;;;2.16;100.00;102294.91;4987217;28;20025;-63
2022/12/02 05:22:58;;;;;;;40.33;23.63;;;;;;;2.14;100.00;102282.75;4988883;28;20405;-64
2022/12/02 05:25:23;;;;;;;41.27;24.63;;;;;;;2.14;100.00;102286.19;4989101;28;20038;-63
2022/12/02 05:27:48;;;;;;;38.80;23.23;;;;;;;2.14;100.00;102291.31;4988941;28;20034;-64
2022/12/02 05:30:14;;;;;;;38.90;22.63;;;;;;;2.15;100.00;102297.34;4981846;28;20030;-63
2022/12/02 05:32:39;;;;;;;38.23;23.07;;;;;;;2.16;100.00;102309.34;4981846;28;20026;-63
2022/12/02 05:35:05;;;;;;;38.33;21.60;;;;;;;2.13;100.00;102304.88;4988592;28;20033;-63
2022/12/02 05:37:30;;;;;;;36.43;22.93;;;;;;;2.15;100.00;102303.38;4987431;28;20041;-64
2022/12/02 05:39:58;;;;;;;35.37;21.70;;;;;;;2.16;100.00;102291.44;4988494;28;20034;-63
2022/12/02 05:42:23;;;;;;;42.30;23.60;;;;;;;2.16;100.00;102278.66;4988520;28;20042;-63
2022/12/02 05:44:48;;;;;;;38.07;22.70;;;;;;;2.18;100.00;102295.03;4988262;28;20046;-63
2022/12/02 05:47:15;;;;;;;38.00;21.57;;;;;;;2.19;100.00;102283.16;4988436;28;20172;-63
2022/12/02 05:49:43;;;;;;;37.07;21.73;;;;;;;2.18;100.00;102282.25;4988497;28;20026;-63
2022/12/02 05:52:24;;;;;;;39.27;22.33;;;;;;;2.20;100.00;102284.94;4988485;28;20286;-63
2022/12/02 05:54:52;;;;;;;37.80;22.20;;;;;;;2.19;100.00;102281.50;4988069;28;20100;-63
2022/12/02 05:57:22;;;;;;;38.97;21.13;;;;;;;2.21;100.00;102284.19;4988539;28;20026;-63
2022/12/02 05:59:48;;;;;;;39.83;22.10;;;;;;;2.21;100.00;102284.19;4988619;28;20089;-63
2022/12/02 06:02:30;;;;;;;35.90;20.93;;;;;;;2.18;100.00;102291.63;4988320;28;20371;-63
2022/12/02 06:04:55;;;;;;;41.97;21.67;;;;;;;2.16;100.00;102282.13;4976249;28;20034;-63
2022/12/02 06:07:21;;;;;;;36.23;21.80;;;;;;;2.16;100.00;102289.78;4987822;28;20033;-63
2022/12/02 06:09:46;;;;;;;37.93;21.53;;;;;;;2.18;100.00;102286.50;4988701;28;20210;-63
2022/12/02 06:12:16;;;;;;;41.63;22.37;;;;;;;2.18;100.00;102283.94;4987781;28;20398;-63
2022/12/02 06:14:51;;;;;;;37.13;21.33;;;;;;;2.14;100.00;102286.19;4988379;28;20022;-63
2022/12/02 06:17:18;;;;;;;35.30;19.60;;;;;;;2.14;100.00;102287.88;4987233;28;20045;-63
2022/12/02 06:19:52;;;;;;;37.27;20.90;;;;;;;2.12;100.00;102287.72;4988285;28;20023;-63
2022/12/02 06:22:30;;;;;;;34.70;20.23;;;;;;;2.10;100.00;102288.34;4988100;28;20268;-64
2022/12/02 06:24:59;;;;;;;32.60;19.40;;;;;;;2.10;100.00;102285.78;4987233;28;20026;-63
2022/12/02 06:27:26;;;;;;;32.53;19.50;;;;;;;2.11;100.00;102288.50;4988096;28;20444;-63
2022/12/02 06:30:00;;;;;;;35.70;20.30;;;;;;;2.05;100.00;102287.94;4986907;28;20061;-63
2022/12/02 06:32:35;;;;;;;33.80;19.00;;;;;;;2.06;100.00;102287.19;4987794;28;20026;-64
2022/12/02 06:35:14;;;;;;;33.97;20.83;;;;;;;2.03;100.00;102287.78;4987537;28;20026;-63
2022/12/02 06:37:39;;;;;;;34.87;19.00;;;;;;;2.03;100.00;102281.78;4987932;28;20048;-63
2022/12/02 06:40:23;;;;;;;32.47;18.30;;;;;;;2.00;100.00;102289.16;4987722;28;20022;-63
2022/12/02 06:42:49;;;;;;;32.43;17.80;;;;;;;2.00;100.00;102284.06;4987211;28;20030;-63
2022/12/02 06:45:27;;;;;;;35.83;19.20;;;;;;;1.99;100.00;102285.72;4987591;28;20040;-63
2022/12/02 06:48:11;;;;;;;33.93;18.80;;;;;;;1.99;100.00;102284.81;4987416;28;20026;-63
2022/12/02 06:50:40;;;;;;;36.33;20.53;;;;;;;1.99;100.00;102287.38;4987719;28;20046;-63
2022/12/02 06:53:24;;;;;;;31.53;19.70;;;;;;;1.98;100.00;102286.47;4987501;28;20038;-63
2022/12/02 06:55:58;;;;;;;31.00;17.73;;;;;;;1.96;100.00;102285.44;4987179;28;20141;-63
2022/12/02 06:58:23;;;;;;;34.03;18.90;;;;;;;1.97;100.00;102286.34;4987252;28;20022;-63
2022/12/02 07:00:48;;;;;;;38.80;20.23;;;;;;;1.97;100.00;102284.69;4987914;28;20469;-63
2022/12/02 07:03:28;;;;;;;35.47;19.57;;;;;;;1.99;100.00;102279.72;4974682;28;20384;-63
2022/12/02 07:05:54;;;;;;;27.27;17.57;;;;;;;1.98;100.00;102286.47;4974729;28;20125;-62
2022/12/02 07:08:20;;;;;;;34.43;19.20;;;;;;;1.99;100.00;102284.81;4987221;28;20547;-63
2022/12/02 07:10:45;;;;;;;32.70;20.27;;;;;;;2.00;100.00;102289.16;4987372;28;20026;-63
2022/12/02 07:13:16;;;;;;;34.60;19.37;;;;;;;2.01;100.00;102289.34;4987547;28;20076;-63
2022/12/02 07:15:41;;;;;;;;;;;;;;;2.02;100.00;102290.22;4987427;28;20029;-63
2022/12/02 07:18:17;;;;;;;35.80;19.27;;;;;;;2.03;100.00;102292.03;4986493;28;19909;-63
2022/12/02 07:20:44;;;;;;;32.10;20.27;;;;;;;2.01;100.00;102294.44;4987204;28;20490;-62
2022/12/02 07:23:13;;;;;;;33.50;20.20;;;;;;;2.02;100.00;102300.44;4986985;28;20101;-63
2022/12/02 07:25:42;;;;;;;35.57;19.87;;;;;;;2.02;100.00;102300.44;4986921;28;20038;-63
2022/12/02 07:28:22;;;;;;;32.57;18.20;;;;;;;1.99;100.00;102289.94;4985527;28;20030;-63
2022/12/02 07:31:19;;;;;;;32.03;17.63;;;;;;;1.99;100.00;102289.94;4987374;28;20049;-63
2022/12/02 07:33:45;;;;;;;31.40;18.67;;;;;;;2.00;100.00;102291.72;4984716;28;20130;-63
2022/12/02 07:36:10;;;;;;;32.03;17.80;;;;;;;2.00;100.00;102287.53;4987032;28;20113;-63
2022/12/02 07:38:36;;;;;;;35.23;17.77;;;;;;;2.00;100.00;102289.16;4985237;28;20029;-63
2022/12/02 07:41:02;;;;;;;33.97;18.30;;;;;;;1.99;100.00;102279.72;4979329;28;20023;-63
2022/12/02 07:43:28;;;;;;;31.33;17.53;;;;;;;1.99;100.00;102287.38;4978090;28;20030;-63
2022/12/02 07:45:53;;;;;;;35.97;18.57;;;;;;;1.99;100.00;102279.72;4980809;28;20600;-63
2022/12/02 07:48:18;;;;;;;30.63;17.83;;;;;;;1.99;100.00;102287.38;4983567;28;20494;-63
2022/12/02 07:50:44;;;;;;;34.23;19.93;;;;;;;1.98;100.00;102283.91;4981138;28;20034;-64
2022/12/02 07:53:09;;;;;;;29.47;17.73;;;;;;;1.98;100.00;102288.16;4982532;28;20445;-63
2022/12/02 07:55:34;;;;;;;30.23;17.57;;;;;;;1.98;100.00;102289.03;4979909;28;20022;-63
2022/12/02 07:58:02;;;;;;;27.20;16.83;;;;;;;1.97;100.00;102287.25;4981386;28;20038;-63
2022/12/02 08:00:28;;;;;;;30.40;17.67;;;;;;;1.98;100.00;102294.16;4983468;28;20038;-63
2022/12/02 08:02:56;;;;;;;28.33;16.37;;;;;;;1.99;100.00;102284.81;4986515;28;20435;-63
2022/12/02 08:05:32;;;;;;;31.47;17.27;;;;;;;2.00;100.00;102290.06;4989299;28;20101;-63
2022/12/02 08:07:58;;;;;;;30.60;17.60;;;;;;;2.02;100.00;102290.22;4988776;28;20026;-63
2022/12/02 08:10:24;;;;;;;30.43;17.50;;;;;;;2.02;100.00;102293.69;4989640;28;20027;-63
2022/12/02 08:12:49;;;;;;;32.07;17.53;;;;;;;2.02;100.00;102295.31;4986383;28;20098;-63
2022/12/02 08:15:16;;;;;;;33.67;18.77;;;;;;;2.03;100.00;102297.13;4989226;28;20026;-63
2022/12/02 08:17:45;;;;;;;34.70;17.70;;;;;;;2.03;100.00;102286.91;4979709;28;20049;-63
2022/12/02 08:20:11;;;;;;;32.47;18.03;;;;;;;2.03;100.00;102292.03;4988227;28;20022;-63
2022/12/02 08:22:37;;;;;;;34.83;18.30;;;;;;;2.03;100.00;102286.91;4987052;28;20077;-63
2022/12/02 08:25:03;;;;;;;33.83;18.97;;;;;;;2.04;100.00;102288.69;4988951;28;20026;-62
2022/12/02 08:27:31;;;;;;;33.03;18.80;;;;;;;2.06;100.00;102292.28;4988717;28;20112;-63
2022/12/02 08:29:57;;;;;;;33.07;18.33;;;;;;;2.07;100.00;102282.97;4984569;28;20042;-63
2022/12/02 08:32:22;;;;;;;33.47;18.30;;;;;;;2.06;100.00;102287.19;4986995;28;20398;-63
2022/12/02 08:34:50;;;;;;;35.33;18.90;;;;;;;2.03;100.00;102287.78;4987222;28;20200;-63
2022/12/02 08:37:16;;;;;;;37.77;20.60;;;;;;;2.03;100.00;102289.47;4988239;28;20034;-63
2022/12/02 08:39:41;;;;;;;36.77;20.10;;;;;;;2.00;100.00;102291.72;4988357;28;20026;-63
2022/12/02 08:42:07;;;;;;;36.77;21.10;;;;;;;2.03;100.00;102289.47;4984719;28;20422;-63
2022/12/02 08:44:33;;;;;;;35.47;21.47;;;;;;;2.00;100.00;102276.38;4979988;28;20415;-63
2022/12/02 08:46:58;;;;;;;36.13;20.60;;;;;;;1.99;100.00;102284.81;4986878;28;20018;-63
2022/12/02 08:49:24;;;;;;;36.10;20.60;;;;;;;1.99;100.00;102284.81;4985255;28;20464;-63
2022/12/02 08:51:49;;;;;;;37.97;21.50;;;;;;;1.99;100.00;102287.38;4987996;28;20379;-63
2022/12/02 08:54:15;;;;;;;36.37;20.43;;;;;;;1.98;100.00;102288.16;4986871;28;20026;-63
2022/12/02 08:56:41;;;;;;;35.97;21.43;;;;;;;1.97;100.00;102286.34;4988739;28;20088;-63
2022/12/02 08:59:07;;;;;;;33.87;20.17;;;;;;;1.97;100.00;102286.34;4988603;28;20530;-63
2022/12/02 09:01:32;;;;;;;34.23;20.10;;;;;;;1.97;100.00;102286.34;4986170;28;20148;-63
2022/12/02 09:03:57;;;;;;;35.60;20.30;;;;;;;1.97;100.00;102284.69;4988788;28;20490;-62
2022/12/02 09:06:23;;;;;;;35.83;20.50;;;;;;;1.97;100.00;102281.22;4987932;28;20434;-63
2022/12/02 09:08:48;;;;;;;36.20;21.20;;;;;;;1.97;100.00;102283.78;4986090;28;20372;-62
2022/12/02 09:11:14;;;;;;;31.77;18.27;;;;;;;1.97;100.00;102289.81;4982782;28;20030;-64
2022/12/02 09:13:42;;;;;;;37.10;19.87;;;;;;;1.98;100.00;102288.16;4987764;28;20264;-63
2022/12/02 09:16:07;;;;;;;29.80;18.03;;;;;;;1.92;100.00;102286.81;4985592;28;20030;-63
2022/12/02 09:18:33;;;;;;;39.27;19.90;;;;;;;1.91;100.00;102290.16;4983014;28;20135;-63
2022/12/02 09:20:58;;;;;;;30.20;18.63;;;;;;;1.92;100.00;102293.59;4986760;28;20026;-63
2022/12/02 09:23:23;;;;;;;31.73;18.30;;;;;;;1.92;100.00;102286.81;4983881;28;20034;-63
2022/12/02 09:25:48;;;;;;;32.97;17.80;;;;;;;1.91;100.00;102295.25;4984541;28;20409;-63
2022/12/02 09:28:14;;;;;;;33.13;17.50;;;;;;;1.91;100.00;102287.59;4984814;28;20026;-64
2022/12/02 09:30:40;;;;;;;36.37;17.53;;;;;;;1.91;100.00;102279.91;4978554;28;20137;-63
2022/12/02 09:33:05;;;;;;;31.07;17.13;;;;;;;1.88;100.00;102284.75;4982801;28;20125;-63
2022/12/02 09:35:30;;;;;;;34.20;18.07;;;;;;;1.90;100.00;102279.78;4988840;28;20467;-63
2022/12/02 09:37:55;;;;;;;37.00;17.83;;;;;;;1.90;100.00;102279.78;4986764;28;20038;-63
2022/12/02 09:40:21;;;;;;;28.53;16.90;;;;;;;1.90;100.00;102280.69;4987732;28;20459;-63
2022/12/02 09:42:47;;;;;;;29.73;17.07;;;;;;;1.91;100.00;102272.25;4986572;28;20030;-63
2022/12/02 09:45:12;;;;;;;31.03;16.53;;;;;;;1.92;100.00;102263.81;4987413;28;20054;-62
2022/12/02 09:47:39;;;;;;;29.20;18.83;;;;;;;1.94;100.00;102266.53;4987686;28;20030;-63
2022/12/02 09:50:05;;;;;;;30.50;17.63;;;;;;;1.95;100.00;102263.19;4984536;28;20085;-63
2022/12/02 09:52:31;;;;;;;28.77;16.73;;;;;;;1.96;100.00;102259.88;4977504;28;20038;-63
2022/12/02 09:54:58;;;;;;;31.50;17.53;;;;;;;1.97;100.00;102264.25;4974061;28;20037;-63
2022/12/02 09:57:29;;;;;;;31.33;17.63;;;;;;;1.98;100.00;102273.69;4985015;28;20038;-63
2022/12/02 09:59:56;;;;;;;27.52;16.67;;;;;;;1.99;100.00;102269.47;4987588;28;20041;-63
2022/12/02 10:02:36;;;;;;;33.93;18.40;;;;;;;1.99;100.00;102259.25;4976496;28;20041;-63
2022/12/02 10:05:14;;;;;;;32.67;17.70;;;;;;;2.01;100.00;102262.84;4986066;28;20034;-63
2022/12/02 10:07:40;;;;;;;30.67;16.53;;;;;;;1.98;100.00;102262.59;4985387;28;20324;-63
2022/12/02 10:10:10;;;;;;;31.40;16.93;;;;;;;1.98;100.00;102263.47;4977291;28;20479;-63
2022/12/02 10:12:35;;;;;;;29.33;17.13;;;;;;;1.98;100.00;102270.25;4986385;28;20451;-63
2022/12/02 10:15:01;;;;;;;26.17;16.00;;;;;;;1.97;100.00;102261.69;4979435;28;20415;-63
2022/12/02 10:17:27;;;;;;;32.87;17.47;;;;;;;1.98;100.00;102262.59;4982611;28;20030;-63
2022/12/02 10:19:53;;;;;;;28.23;16.97;;;;;;;1.96;100.00;102253.88;4980552;28;20086;-63
2022/12/02 10:22:20;;;;;;;29.80;17.07;;;;;;;1.97;100.00;102264.25;4983972;28;20101;-63
2022/12/02 10:24:47;;;;;;;30.10;16.93;;;;;;;1.96;100.00;102254.75;4981322;28;20034;-64
2022/12/02 10:27:29;;;;;;;37.17;17.67;;;;;;;1.98;100.00;102255.78;4985789;28;20097;-64
2022/12/02 10:30:16;;;;;;;36.13;19.37;;;;;;;1.97;100.00;102261.69;4982680;28;20486;-64
2022/12/02 10:32:41;;;;;;;33.27;18.30;;;;;;;1.98;100.00;102257.47;4983503;28;20033;-63
2022/12/02 10:35:08;;;;;;;39.20;18.37;;;;;;;2.00;100.00;102248.25;4985695;28;20110;-63
2022/12/02 10:37:34;;;;;;;39.70;18.83;;;;;;;2.01;100.00;102243.31;4981971;28;20269;-64
2022/12/02 10:40:08;;;;;;;43.00;19.87;;;;;;;2.02;100.00;102244.19;4984970;28;20306;-63
2022/12/02 10:42:33;;;;;;;42.50;20.03;;;;;;;2.03;100.00;102235.75;4982634;28;20555;-63
2022/12/02 10:45:13;;;;;;;44.23;21.67;;;;;;;2.03;100.00;102231.53;4978119;28;20046;-63
2022/12/02 10:47:38;;;;;;;40.37;20.43;;;;;;;2.02;100.00;102237.41;4983458;28;20105;-63
2022/12/02 10:50:15;;;;;;;50.90;23.17;;;;;;;2.04;100.00;102237.53;4983818;28;20109;-63
2022/12/02 10:52:46;;;;;;;40.87;21.17;;;;;;;2.04;100.00;102237.53;4982347;28;20034;-63
2022/12/02 10:55:12;;;;;;;;;;;;;;;2.06;100.00;102237.69;4986793;28;20333;-63
2022/12/02 10:57:38;;;;;;;56.07;24.57;;;;;;;2.09;100.00;102232.81;4979554;28;20012;-63
2022/12/02 11:00:15;;;;;;;45.00;22.13;;;;;;;2.09;100.00;102225.16;4969244;28;20026;-63
2022/12/02 11:02:47;;;;;;;47.23;23.30;;;;;;;2.11;100.00;102227.09;4982410;28;20022;-63
2022/12/02 11:05:18;;;;;;;49.47;22.97;;;;;;;2.14;100.00;102227.38;4985341;28;20022;-63
2022/12/02 11:08:15;;;;;;;57.17;24.85;;;;;;;2.16;100.00;102228.41;4980638;28;20057;-63
2022/12/02 11:10:43;;;;;;;44.60;23.07;;;;;;;2.19;100.00;102226.88;4967434;28;20039;-63
2022/12/02 11:13:11;;;;;;;46.37;22.43;;;;;;;2.21;100.00;102225.38;4985796;28;20034;-63